sensor_id;sensor_type;location;lat;lon;timestamp;pressure;altitude;pressure_sealevel;temperature;humidity
72330;BME280;60660;52.076;5.110;2023-04-01T00:01:59;99114.35;;;9.65;40.30
72330;BME280;60660;52.076;5.110;2023-04-01T00:04:24;99115.90;;;9.96;40.41
72330;BME280;60660;52.076;5.110;2023-04-01T00:06:50;99123.50;;;9.04;42.16
72330;BME280;60660;52.076;5.110;2023-04-01T00:09:15;99120.44;;;9.38;41.45
72330;BME280;60660;52.076;5.110;2023-04-01T00:11:41;99124.85;;;9.20;41.24
72330;BME280;60660;52.076;5.110;2023-04-01T00:14:07;99126.11;;;7.93;42.93
72330;BME280;60660;52.076;5.110;2023-04-01T00:16:31;99127.15;;;8.65;42.47
72330;BME280;60660;52.076;5.110;2023-04-01T00:18:57;99128.73;;;9.26;41.54
72330;BME280;60660;52.076;5.110;2023-04-01T00:21:23;99132.90;;;8.63;41.75
72330;BME280;60660;52.076;5.110;2023-04-01T00:23:48;99130.27;;;8.22;42.52
72330;BME280;60660;52.076;5.110;2023-04-01T00:26:14;99132.90;;;8.78;42.98
72330;BME280;60660;52.076;5.110;2023-04-01T00:28:39;99133.97;;;8.19;43.82
72330;BME280;60660;52.076;5.110;2023-04-01T00:31:05;99133.78;;;7.38;43.72
72330;BME280;60660;52.076;5.110;2023-04-01T00:33:30;99133.40;;;8.02;44.15
72330;BME280;60660;52.076;5.110;2023-04-01T00:35:56;99138.40;;;8.38;43.17
72330;BME280;60660;52.076;5.110;2023-04-01T00:38:21;99130.53;;;9.12;42.27
72330;BME280;60660;52.076;5.110;2023-04-01T00:40:47;99140.26;;;9.62;41.64
72330;BME280;60660;52.076;5.110;2023-04-01T00:43:16;99139.36;;;9.03;41.95
72330;BME280;60660;52.076;5.110;2023-04-01T00:45:40;99136.53;;;8.83;42.31
72330;BME280;60660;52.076;5.110;2023-04-01T00:48:07;99141.06;;;7.64;43.56
72330;BME280;60660;52.076;5.110;2023-04-01T00:50:29;99143.13;;;8.81;42.61
72330;BME280;60660;52.076;5.110;2023-04-01T00:52:54;99148.71;;;7.61;44.27
72330;BME280;60660;52.076;5.110;2023-04-01T00:55:20;99147.76;;;6.60;46.91
72330;BME280;60660;52.076;5.110;2023-04-01T00:57:45;99147.26;;;8.07;44.83
72330;BME280;60660;52.076;5.110;2023-04-01T01:00:11;99146.08;;;7.32;45.00
72330;BME280;60660;52.076;5.110;2023-04-01T01:02:35;99151.79;;;7.17;46.18
72330;BME280;60660;52.076;5.110;2023-04-01T01:05:02;99150.02;;;7.53;45.35
72330;BME280;60660;52.076;5.110;2023-04-01T01:07:31;99155.33;;;8.07;44.69
72330;BME280;60660;52.076;5.110;2023-04-01T01:09:58;99155.91;;;7.93;44.28
72330;BME280;60660;52.076;5.110;2023-04-01T01:12:20;99154.06;;;8.18;44.01
72330;BME280;60660;52.076;5.110;2023-04-01T01:14:51;99148.43;;;7.28;44.97
72330;BME280;60660;52.076;5.110;2023-04-01T01:17:13;99154.40;;;7.68;44.95
72330;BME280;60660;52.076;5.110;2023-04-01T01:20:23;99160.01;;;8.83;42.89
72330;BME280;60660;52.076;5.110;2023-04-01T01:22:13;99158.72;;;7.93;44.26
72330;BME280;60660;52.076;5.110;2023-04-01T01:24:41;99160.73;;;7.35;45.16
72330;BME280;60660;52.076;5.110;2023-04-01T01:26:55;99155.25;;;6.98;46.07
72330;BME280;60660;52.076;5.110;2023-04-01T01:29:31;99156.67;;;7.67;45.29
72330;BME280;60660;52.076;5.110;2023-04-01T01:31:46;99157.10;;;8.49;43.77
72330;BME280;60660;52.076;5.110;2023-04-01T01:34:16;99155.99;;;9.12;42.45
72330;BME280;60660;52.076;5.110;2023-04-01T01:36:33;99161.81;;;8.63;43.30
72330;BME280;60660;52.076;5.110;2023-04-01T01:38:58;99159.32;;;8.87;43.39
72330;BME280;60660;52.076;5.110;2023-04-01T01:41:25;99160.79;;;9.36;42.70
72330;BME280;60660;52.076;5.110;2023-04-01T01:43:50;99163.98;;;9.08;41.81
72330;BME280;60660;52.076;5.110;2023-04-01T01:46:18;99163.62;;;8.62;42.52
72330;BME280;60660;52.076;5.110;2023-04-01T01:48:42;99162.52;;;8.96;42.85
72330;BME280;60660;52.076;5.110;2023-04-01T01:51:06;99163.44;;;8.49;43.22
72330;BME280;60660;52.076;5.110;2023-04-01T01:53:31;99165.46;;;9.43;42.32
72330;BME280;60660;52.076;5.110;2023-04-01T01:55:57;99166.02;;;8.24;43.49
72330;BME280;60660;52.076;5.110;2023-04-01T01:58:26;99166.20;;;7.48;44.59
72330;BME280;60660;52.076;5.110;2023-04-01T02:00:51;99169.26;;;8.76;43.01
72330;BME280;60660;52.076;5.110;2023-04-01T02:03:13;99173.00;;;9.56;42.26
72330;BME280;60660;52.076;5.110;2023-04-01T02:05:38;99174.94;;;8.26;43.37
72330;BME280;60660;52.076;5.110;2023-04-01T02:08:07;99179.08;;;8.03;42.95
72330;BME280;60660;52.076;5.110;2023-04-01T02:10:31;99178.78;;;8.65;43.11
72330;BME280;60660;52.076;5.110;2023-04-01T02:12:58;99178.00;;;7.05;45.33
72330;BME280;60660;52.076;5.110;2023-04-01T02:15:21;99179.41;;;7.36;44.81
72330;BME280;60660;52.076;5.110;2023-04-01T02:17:46;99188.03;;;8.70;42.97
72330;BME280;60660;52.076;5.110;2023-04-01T02:20:13;99191.01;;;7.65;43.01
72330;BME280;60660;52.076;5.110;2023-04-01T02:22:39;99190.08;;;7.59;44.26
72330;BME280;60660;52.076;5.110;2023-04-01T02:25:03;99187.91;;;6.59;46.32
72330;BME280;60660;52.076;5.110;2023-04-01T02:27:26;99192.28;;;8.75;43.18
72330;BME280;60660;52.076;5.110;2023-04-01T02:29:51;99194.06;;;7.96;43.95
72330;BME280;60660;52.076;5.110;2023-04-01T02:32:16;99192.50;;;7.11;44.80
72330;BME280;60660;52.076;5.110;2023-04-01T02:34:42;99198.69;;;7.25;45.20
72330;BME280;60660;52.076;5.110;2023-04-01T02:37:07;99195.95;;;6.58;46.12
72330;BME280;60660;52.076;5.110;2023-04-01T02:39:33;99193.82;;;7.69;44.57
72330;BME280;60660;52.076;5.110;2023-04-01T02:41:58;99195.38;;;7.92;44.34
72330;BME280;60660;52.076;5.110;2023-04-01T02:44:23;99200.79;;;8.48;43.44
72330;BME280;60660;52.076;5.110;2023-04-01T02:46:49;99202.86;;;8.04;43.18
72330;BME280;60660;52.076;5.110;2023-04-01T02:49:14;99205.46;;;8.93;43.03
72330;BME280;60660;52.076;5.110;2023-04-01T02:51:39;99209.33;;;8.66;43.14
72330;BME280;60660;52.076;5.110;2023-04-01T02:54:04;99209.02;;;8.42;42.04
72330;BME280;60660;52.076;5.110;2023-04-01T02:56:30;99211.63;;;8.03;43.09
72330;BME280;60660;52.076;5.110;2023-04-01T02:58:56;99212.17;;;7.14;44.75
72330;BME280;60660;52.076;5.110;2023-04-01T03:01:20;99212.65;;;6.68;45.80
72330;BME280;60660;52.076;5.110;2023-04-01T03:03:45;99219.95;;;8.24;43.85
72330;BME280;60660;52.076;5.110;2023-04-01T03:06:13;99219.84;;;7.44;44.78
72330;BME280;60660;52.076;5.110;2023-04-01T03:08:36;99224.10;;;8.17;42.99
72330;BME280;60660;52.076;5.110;2023-04-01T03:11:02;99230.14;;;9.02;41.39
72330;BME280;60660;52.076;5.110;2023-04-01T03:13:27;99234.17;;;8.53;42.12
72330;BME280;60660;52.076;5.110;2023-04-01T03:15:52;99233.95;;;8.85;41.96
72330;BME280;60660;52.076;5.110;2023-04-01T03:18:19;99236.63;;;8.17;42.66
72330;BME280;60660;52.076;5.110;2023-04-01T03:20:44;99240.68;;;8.88;42.26
72330;BME280;60660;52.076;5.110;2023-04-01T03:23:09;99244.22;;;9.01;41.60
72330;BME280;60660;52.076;5.110;2023-04-01T03:25:35;99248.46;;;9.34;40.97
72330;BME280;60660;52.076;5.110;2023-04-01T03:28:00;99248.18;;;10.04;39.65
72330;BME280;60660;52.076;5.110;2023-04-01T03:30:25;99253.36;;;9.12;40.56
72330;BME280;60660;52.076;5.110;2023-04-01T03:32:51;99257.95;;;8.94;41.00
72330;BME280;60660;52.076;5.110;2023-04-01T03:35:16;99259.24;;;9.37;40.42
72330;BME280;60660;52.076;5.110;2023-04-01T03:37:41;99262.62;;;9.52;40.40
72330;BME280;60660;52.076;5.110;2023-04-01T03:40:07;99266.96;;;8.85;40.79
72330;BME280;60660;52.076;5.110;2023-04-01T03:42:32;99265.19;;;10.48;39.08
72330;BME280;60660;52.076;5.110;2023-04-01T03:44:57;99270.06;;;9.41;40.85
72330;BME280;60660;52.076;5.110;2023-04-01T03:47:22;99271.96;;;9.80;40.13
72330;BME280;60660;52.076;5.110;2023-04-01T03:49:48;99272.76;;;9.80;40.35
72330;BME280;60660;52.076;5.110;2023-04-01T03:52:13;99277.37;;;9.40;40.35
72330;BME280;60660;52.076;5.110;2023-04-01T03:54:38;99281.68;;;9.68;40.48
72330;BME280;60660;52.076;5.110;2023-04-01T03:57:05;99286.18;;;9.02;40.91
72330;BME280;60660;52.076;5.110;2023-04-01T03:59:30;99291.61;;;9.02;41.20
72330;BME280;60660;52.076;5.110;2023-04-01T04:01:56;99288.75;;;7.95;43.89
72330;BME280;60660;52.076;5.110;2023-04-01T04:04:20;99291.21;;;7.77;44.42
72330;BME280;60660;52.076;5.110;2023-04-01T04:06:46;99295.43;;;8.43;44.29
72330;BME280;60660;52.076;5.110;2023-04-01T04:09:11;99295.39;;;8.50;44.54
72330;BME280;60660;52.076;5.110;2023-04-01T04:11:36;99302.03;;;9.02;43.46
72330;BME280;60660;52.076;5.110;2023-04-01T04:14:01;99306.57;;;8.15;43.98
72330;BME280;60660;52.076;5.110;2023-04-01T04:16:27;99310.51;;;7.96;44.46
72330;BME280;60660;52.076;5.110;2023-04-01T04:18:52;99314.98;;;9.02;43.81
72330;BME280;60660;52.076;5.110;2023-04-01T04:21:18;99321.52;;;8.28;44.25
72330;BME280;60660;52.076;5.110;2023-04-01T04:23:43;99324.74;;;7.00;46.31
72330;BME280;60660;52.076;5.110;2023-04-01T04:26:10;99329.71;;;9.04;43.95
72330;BME280;60660;52.076;5.110;2023-04-01T04:28:34;99332.22;;;8.65;43.36
72330;BME280;60660;52.076;5.110;2023-04-01T04:30:59;99337.74;;;8.23;44.06
72330;BME280;60660;52.076;5.110;2023-04-01T04:33:25;99341.24;;;8.18;44.31
72330;BME280;60660;52.076;5.110;2023-04-01T04:35:51;99342.65;;;8.26;44.65
72330;BME280;60660;52.076;5.110;2023-04-01T04:38:15;99349.95;;;8.44;44.10
72330;BME280;60660;52.076;5.110;2023-04-01T04:40:40;99355.98;;;8.30;44.01
72330;BME280;60660;52.076;5.110;2023-04-01T04:43:05;99361.43;;;7.72;44.25
72330;BME280;60660;52.076;5.110;2023-04-01T04:45:31;99365.44;;;8.20;44.24
72330;BME280;60660;52.076;5.110;2023-04-01T04:47:56;99367.55;;;8.09;44.33
72330;BME280;60660;52.076;5.110;2023-04-01T04:50:21;99369.21;;;8.17;43.95
72330;BME280;60660;52.076;5.110;2023-04-01T04:52:46;99376.63;;;8.55;44.09
72330;BME280;60660;52.076;5.110;2023-04-01T04:55:12;99380.90;;;7.99;44.00
72330;BME280;60660;52.076;5.110;2023-04-01T04:57:38;99386.29;;;7.82;44.28
72330;BME280;60660;52.076;5.110;2023-04-01T05:00:04;99392.26;;;8.78;42.54
72330;BME280;60660;52.076;5.110;2023-04-01T05:02:28;99401.82;;;9.30;42.15
72330;BME280;60660;52.076;5.110;2023-04-01T05:04:53;99400.62;;;9.44;42.33
72330;BME280;60660;52.076;5.110;2023-04-01T05:07:19;99401.12;;;8.97;42.58
72330;BME280;60660;52.076;5.110;2023-04-01T05:09:45;99406.40;;;8.68;43.34
72330;BME280;60660;52.076;5.110;2023-04-01T05:12:10;99408.55;;;8.82;43.15
72330;BME280;60660;52.076;5.110;2023-04-01T05:14:35;99410.62;;;8.95;42.65
72330;BME280;60660;52.076;5.110;2023-04-01T05:17:00;99416.29;;;8.39;43.40
72330;BME280;60660;52.076;5.110;2023-04-01T05:19:25;99420.42;;;8.02;44.59
72330;BME280;60660;52.076;5.110;2023-04-01T05:21:50;99425.83;;;8.08;44.44
72330;BME280;60660;52.076;5.110;2023-04-01T05:24:17;99431.76;;;7.86;44.47
72330;BME280;60660;52.076;5.110;2023-04-01T05:26:41;99436.74;;;7.81;45.36
72330;BME280;60660;52.076;5.110;2023-04-01T05:29:07;99440.16;;;8.23;44.56
72330;BME280;60660;52.076;5.110;2023-04-01T05:31:32;99442.45;;;8.53;43.32
72330;BME280;60660;52.076;5.110;2023-04-01T05:33:57;99449.82;;;7.67;45.43
72330;BME280;60660;52.076;5.110;2023-04-01T05:36:24;99450.00;;;7.41;45.83
72330;BME280;60660;52.076;5.110;2023-04-01T05:38:49;99455.22;;;7.80;45.37
72330;BME280;60660;52.076;5.110;2023-04-01T05:41:15;99456.77;;;8.11;44.55
72330;BME280;60660;52.076;5.110;2023-04-01T05:43:40;99462.37;;;8.03;44.51
72330;BME280;60660;52.076;5.110;2023-04-01T05:46:05;99465.66;;;7.00;45.99
72330;BME280;60660;52.076;5.110;2023-04-01T05:48:30;99467.11;;;7.45;46.51
72330;BME280;60660;52.076;5.110;2023-04-01T05:50:56;99470.43;;;7.34;46.23
72330;BME280;60660;52.076;5.110;2023-04-01T05:53:22;99470.15;;;7.58;45.59
72330;BME280;60660;52.076;5.110;2023-04-01T05:55:47;99476.64;;;6.41;47.89
72330;BME280;60660;52.076;5.110;2023-04-01T05:58:13;99474.13;;;6.97;47.01
72330;BME280;60660;52.076;5.110;2023-04-01T06:00:39;99476.64;;;7.29;46.64
72330;BME280;60660;52.076;5.110;2023-04-01T06:03:04;99483.38;;;6.03;48.94
72330;BME280;60660;52.076;5.110;2023-04-01T06:05:38;99481.18;;;7.41;46.09
72330;BME280;60660;52.076;5.110;2023-04-01T06:07:59;99487.64;;;8.04;44.83
72330;BME280;60660;52.076;5.110;2023-04-01T06:10:29;99491.34;;;7.16;47.04
72330;BME280;60660;52.076;5.110;2023-04-01T06:12:53;99492.24;;;7.28;46.81
72330;BME280;60660;52.076;5.110;2023-04-01T06:15:19;99493.26;;;7.12;46.38
72330;BME280;60660;52.076;5.110;2023-04-01T06:17:50;99503.81;;;8.37;44.69
72330;BME280;60660;52.076;5.110;2023-04-01T06:20:09;99507.63;;;8.72;42.97
72330;BME280;60660;52.076;5.110;2023-04-01T06:22:46;99510.14;;;8.61;42.93
72330;BME280;60660;52.076;5.110;2023-04-01T06:25:04;99515.04;;;9.11;42.70
72330;BME280;60660;52.076;5.110;2023-04-01T06:27:29;99521.97;;;7.98;44.15
72330;BME280;60660;52.076;5.110;2023-04-01T06:29:50;99524.18;;;8.34;44.20
72330;BME280;60660;52.076;5.110;2023-04-01T06:32:22;99526.39;;;7.82;44.33
72330;BME280;60660;52.076;5.110;2023-04-01T06:34:47;99533.54;;;8.43;44.34
72330;BME280;60660;52.076;5.110;2023-04-01T06:37:09;99539.17;;;8.39;43.92
72330;BME280;60660;52.076;5.110;2023-04-01T06:39:35;99543.46;;;7.68;44.50
72330;BME280;60660;52.076;5.110;2023-04-01T06:42:06;99548.08;;;8.64;44.08
72330;BME280;60660;52.076;5.110;2023-04-01T06:44:21;99550.25;;;8.25;44.50
72330;BME280;60660;52.076;5.110;2023-04-01T06:46:45;99558.12;;;8.25;44.69
72330;BME280;60660;52.076;5.110;2023-04-01T06:49:24;99559.67;;;7.36;45.65
72330;BME280;60660;52.076;5.110;2023-04-01T06:51:41;99564.42;;;7.75;45.07
72330;BME280;60660;52.076;5.110;2023-04-01T06:54:04;99566.54;;;8.50;43.85
72330;BME280;60660;52.076;5.110;2023-04-01T06:56:25;99571.58;;;6.88;46.23
72330;BME280;60660;52.076;5.110;2023-04-01T06:58:52;99579.00;;;7.14;46.49
72330;BME280;60660;52.076;5.110;2023-04-01T07:01:20;99576.50;;;7.25;46.35
72330;BME280;60660;52.076;5.110;2023-04-01T07:03:43;99574.43;;;8.04;45.28
72330;BME280;60660;52.076;5.110;2023-04-01T07:06:09;99584.03;;;7.00;46.32
72330;BME280;60660;52.076;5.110;2023-04-01T07:08:35;99586.61;;;7.69;45.47
72330;BME280;60660;52.076;5.110;2023-04-01T07:11:01;99593.32;;;7.55;45.81
72330;BME280;60660;52.076;5.110;2023-04-01T07:13:26;99596.64;;;7.29;46.91
72330;BME280;60660;52.076;5.110;2023-04-01T07:15:55;99602.17;;;7.67;46.45
72330;BME280;60660;52.076;5.110;2023-04-01T07:18:16;99603.91;;;7.63;45.89
72330;BME280;60660;52.076;5.110;2023-04-01T07:20:38;99609.47;;;8.35;44.91
72330;BME280;60660;52.076;5.110;2023-04-01T07:23:06;99612.16;;;7.88;45.20
72330;BME280;60660;52.076;5.110;2023-04-01T07:25:33;99617.44;;;7.82;45.64
72330;BME280;60660;52.076;5.110;2023-04-01T07:28:00;99625.35;;;7.67;45.73
72330;BME280;60660;52.076;5.110;2023-04-01T07:30:22;99626.41;;;7.65;46.56
72330;BME280;60660;52.076;5.110;2023-04-01T07:32:49;99632.10;;;7.86;46.29
72330;BME280;60660;52.076;5.110;2023-04-01T07:35:18;99633.06;;;8.39;45.24
72330;BME280;60660;52.076;5.110;2023-04-01T07:37:45;99640.62;;;8.29;45.27
72330;BME280;60660;52.076;5.110;2023-04-01T07:40:12;99645.98;;;7.43;46.29
72330;BME280;60660;52.076;5.110;2023-04-01T07:42:33;99646.11;;;6.96;48.32
72330;BME280;60660;52.076;5.110;2023-04-01T07:45:01;99647.98;;;7.22;49.28
72330;BME280;60660;52.076;5.110;2023-04-01T07:47:30;99654.54;;;7.23;48.39
72330;BME280;60660;52.076;5.110;2023-04-01T07:49:56;99662.94;;;7.89;47.28
72330;BME280;60660;52.076;5.110;2023-04-01T07:52:14;99662.82;;;7.50;47.24
72330;BME280;60660;52.076;5.110;2023-04-01T07:54:40;99664.15;;;7.64;47.15
72330;BME280;60660;52.076;5.110;2023-04-01T07:57:03;99666.42;;;6.85;48.63
72330;BME280;60660;52.076;5.110;2023-04-01T07:59:28;99667.53;;;6.36;50.74
72330;BME280;60660;52.076;5.110;2023-04-01T08:01:57;99678.47;;;7.12;49.39
72330;BME280;60660;52.076;5.110;2023-04-01T08:04:28;99682.39;;;7.23;48.64
72330;BME280;60660;52.076;5.110;2023-04-01T08:06:45;99683.19;;;7.56;47.88
72330;BME280;60660;52.076;5.110;2023-04-01T08:09:17;99691.69;;;7.82;46.96
72330;BME280;60660;52.076;5.110;2023-04-01T08:11:44;99696.66;;;8.27;46.71
72330;BME280;60660;52.076;5.110;2023-04-01T08:14:04;99699.57;;;8.00;47.03
72330;BME280;60660;52.076;5.110;2023-04-01T08:16:28;99702.71;;;7.03;48.45
72330;BME280;60660;52.076;5.110;2023-04-01T08:18:56;99707.33;;;7.47;48.27
72330;BME280;60660;52.076;5.110;2023-04-01T08:21:17;99710.03;;;7.27;48.34
72330;BME280;60660;52.076;5.110;2023-04-01T08:23:43;99712.67;;;7.99;47.16
72330;BME280;60660;52.076;5.110;2023-04-01T08:26:08;99712.67;;;7.52;46.85
72330;BME280;60660;52.076;5.110;2023-04-01T08:28:34;99713.46;;;8.07;46.22
72330;BME280;60660;52.076;5.110;2023-04-01T08:31:00;99721.82;;;8.84;45.48
72330;BME280;60660;52.076;5.110;2023-04-01T08:33:24;99726.71;;;8.27;45.63
72330;BME280;60660;52.076;5.110;2023-04-01T08:35:50;99731.38;;;7.92;46.45
72330;BME280;60660;52.076;5.110;2023-04-01T08:38:13;99735.60;;;7.61;47.24
72330;BME280;60660;52.076;5.110;2023-04-01T08:40:51;99744.07;;;8.43;46.54
72330;BME280;60660;52.076;5.110;2023-04-01T08:43:07;99744.79;;;7.96;46.38
72330;BME280;60660;52.076;5.110;2023-04-01T08:45:42;99749.76;;;8.51;45.63
72330;BME280;60660;52.076;5.110;2023-04-01T08:48:10;99752.89;;;8.35;46.11
72330;BME280;60660;52.076;5.110;2023-04-01T08:50:35;99751.50;;;8.30;45.85
72330;BME280;60660;52.076;5.110;2023-04-01T08:52:51;99752.78;;;8.76;45.35
72330;BME280;60660;52.076;5.110;2023-04-01T08:55:24;99756.45;;;7.88;46.70
72330;BME280;60660;52.076;5.110;2023-04-01T08:57:42;99757.42;;;8.08;47.15
72330;BME280;60660;52.076;5.110;2023-04-01T09:00:07;99764.94;;;8.12;46.54
72330;BME280;60660;52.076;5.110;2023-04-01T09:02:44;99764.99;;;8.51;47.09
72330;BME280;60660;52.076;5.110;2023-04-01T09:05:15;99767.02;;;7.78;47.79
72330;BME280;60660;52.076;5.110;2023-04-01T09:07:29;99771.54;;;8.64;46.57
72330;BME280;60660;52.076;5.110;2023-04-01T09:10:16;99770.66;;;9.29;45.27
72330;BME280;60660;52.076;5.110;2023-04-01T09:12:35;99781.51;;;8.24;45.86
72330;BME280;60660;52.076;5.110;2023-04-01T09:14:43;99783.31;;;8.32;46.44
72330;BME280;60660;52.076;5.110;2023-04-01T09:17:30;99783.77;;;9.28;45.36
72330;BME280;60660;52.076;5.110;2023-04-01T09:19:31;99784.59;;;9.08;44.83
72330;BME280;60660;52.076;5.110;2023-04-01T09:21:59;99785.27;;;10.02;43.99
72330;BME280;60660;52.076;5.110;2023-04-01T09:24:29;99790.18;;;11.13;42.04
72330;BME280;60660;52.076;5.110;2023-04-01T09:27:01;99791.77;;;10.70;41.70
72330;BME280;60660;52.076;5.110;2023-04-01T09:29:17;99794.34;;;10.58;41.17
72330;BME280;60660;52.076;5.110;2023-04-01T09:31:45;99794.10;;;9.63;42.93
72330;BME280;60660;52.076;5.110;2023-04-01T09:34:26;99794.37;;;9.85;42.88
72330;BME280;60660;52.076;5.110;2023-04-01T09:36:38;99798.70;;;10.25;42.71
72330;BME280;60660;52.076;5.110;2023-04-01T09:38:56;99799.24;;;10.18;42.75
72330;BME280;60660;52.076;5.110;2023-04-01T09:41:19;99804.22;;;10.12;43.10
72330;BME280;60660;52.076;5.110;2023-04-01T09:43:49;99808.68;;;11.25;41.53
72330;BME280;60660;52.076;5.110;2023-04-01T09:46:18;99807.71;;;11.05;40.76
72330;BME280;60660;52.076;5.110;2023-04-01T09:48:44;99808.69;;;10.31;42.23
72330;BME280;60660;52.076;5.110;2023-04-01T09:51:03;99812.42;;;10.48;42.01
72330;BME280;60660;52.076;5.110;2023-04-01T09:53:36;99813.62;;;9.80;43.40
72330;BME280;60660;52.076;5.110;2023-04-01T09:56:07;99818.01;;;9.93;43.76
72330;BME280;60660;52.076;5.110;2023-04-01T10:01:16;99823.50;;;10.56;43.54
72330;BME280;60660;52.076;5.110;2023-04-01T10:03:25;99824.39;;;9.26;43.28
72330;BME280;60660;52.076;5.110;2023-04-01T10:05:58;99829.49;;;9.05;44.04
72330;BME280;60660;52.076;5.110;2023-04-01T10:08:47;99829.91;;;10.25;43.77
72330;BME280;60660;52.076;5.110;2023-04-01T10:11:09;99830.07;;;10.01;42.99
72330;BME280;60660;52.076;5.110;2023-04-01T10:13:01;99834.89;;;11.06;41.51
72330;BME280;60660;52.076;5.110;2023-04-01T10:15:45;99840.68;;;11.07;40.77
72330;BME280;60660;52.076;5.110;2023-04-01T10:17:54;99843.86;;;11.02;40.96
72330;BME280;60660;52.076;5.110;2023-04-01T10:20:25;99846.07;;;10.39;40.76
72330;BME280;60660;52.076;5.110;2023-04-01T10:23:52;99846.92;;;11.00;40.56
72330;BME280;60660;52.076;5.110;2023-04-01T10:25:29;99849.08;;;10.17;43.37
72330;BME280;60660;52.076;5.110;2023-04-01T10:27:41;99847.45;;;11.51;41.55
72330;BME280;60660;52.076;5.110;2023-04-01T10:30:13;99846.14;;;12.52;39.97
72330;BME280;60660;52.076;5.110;2023-04-01T10:32:31;99849.49;;;10.75;41.36
72330;BME280;60660;52.076;5.110;2023-04-01T10:34:56;99848.77;;;10.07;42.11
72330;BME280;60660;52.076;5.110;2023-04-01T10:37:10;99849.45;;;9.40;42.53
72330;BME280;60660;52.076;5.110;2023-04-01T10:39:38;99857.57;;;9.65;43.64
72330;BME280;60660;52.076;5.110;2023-04-01T10:42:11;99854.29;;;10.69;42.39
72330;BME280;60660;52.076;5.110;2023-04-01T10:44:34;99859.57;;;11.75;40.77
72330;BME280;60660;52.076;5.110;2023-04-01T10:47:08;99856.96;;;11.77;40.14
72330;BME280;60660;52.076;5.110;2023-04-01T10:49:34;99864.52;;;10.82;41.51
72330;BME280;60660;52.076;5.110;2023-04-01T10:51:58;99870.49;;;10.14;41.97
72330;BME280;60660;52.076;5.110;2023-04-01T10:54:17;99877.26;;;9.28;42.30
72330;BME280;60660;52.076;5.110;2023-04-01T10:56:34;99877.58;;;9.79;42.60
72330;BME280;60660;52.076;5.110;2023-04-01T11:01:23;99887.30;;;8.65;44.12
72330;BME280;60660;52.076;5.110;2023-04-01T11:04:12;99882.52;;;9.76;43.13
72330;BME280;60660;52.076;5.110;2023-04-01T11:06:29;99881.03;;;10.22;42.30
72330;BME280;60660;52.076;5.110;2023-04-01T11:08:48;99883.31;;;11.82;40.32
72330;BME280;60660;52.076;5.110;2023-04-01T11:11:09;99885.60;;;12.25;40.07
72330;BME280;60660;52.076;5.110;2023-04-01T11:13:28;99885.29;;;12.85;38.65
72330;BME280;60660;52.076;5.110;2023-04-01T11:15:57;99886.55;;;12.16;39.56
72330;BME280;60660;52.076;5.110;2023-04-01T11:18:23;99890.23;;;13.45;38.60
72330;BME280;60660;52.076;5.110;2023-04-01T11:21:23;99894.71;;;15.11;35.59
72330;BME280;60660;52.076;5.110;2023-04-01T11:23:05;99892.84;;;15.04;35.21
72330;BME280;60660;52.076;5.110;2023-04-01T11:25:39;99894.33;;;15.53;34.52
72330;BME280;60660;52.076;5.110;2023-04-01T11:27:58;99899.92;;;14.97;34.45
72330;BME280;60660;52.076;5.110;2023-04-01T11:30:18;99902.71;;;13.55;35.71
72330;BME280;60660;52.076;5.110;2023-04-01T11:32:43;99907.74;;;13.74;36.08
72330;BME280;60660;52.076;5.110;2023-04-01T11:35:27;99906.28;;;12.71;37.31
72330;BME280;60660;52.076;5.110;2023-04-01T11:37:35;99909.53;;;10.82;39.20
72330;BME280;60660;52.076;5.110;2023-04-01T11:39:59;99909.72;;;12.33;39.07
72330;BME280;60660;52.076;5.110;2023-04-01T11:42:24;99909.63;;;11.75;38.77
72330;BME280;60660;52.076;5.110;2023-04-01T11:44:47;99913.20;;;11.67;39.19
72330;BME280;60660;52.076;5.110;2023-04-01T11:47:26;99921.22;;;12.36;38.52
72330;BME280;60660;52.076;5.110;2023-04-01T11:49:44;99924.06;;;12.65;37.85
72330;BME280;60660;52.076;5.110;2023-04-01T11:52:08;99927.21;;;11.81;38.44
72330;BME280;60660;52.076;5.110;2023-04-01T11:54:36;99930.22;;;11.56;39.14
72330;BME280;60660;52.076;5.110;2023-04-01T11:57:00;99933.88;;;11.52;39.88
72330;BME280;60660;52.076;5.110;2023-04-01T11:59:43;99936.85;;;11.70;39.50
72330;BME280;60660;52.076;5.110;2023-04-01T12:01:48;99943.33;;;11.31;39.82
72330;BME280;60660;52.076;5.110;2023-04-01T12:04:48;99950.53;;;9.66;42.00
72330;BME280;60660;52.076;5.110;2023-04-01T12:06:36;99957.93;;;9.78;42.02
72330;BME280;60660;52.076;5.110;2023-04-01T12:09:01;99957.76;;;8.35;45.66
72330;BME280;60660;52.076;5.110;2023-04-01T12:11:25;99962.57;;;8.62;45.48
72330;BME280;60660;52.076;5.110;2023-04-01T12:13:53;99966.45;;;9.23;44.94
72330;BME280;60660;52.076;5.110;2023-04-01T12:16:23;99969.98;;;9.53;44.84
72330;BME280;60660;52.076;5.110;2023-04-01T12:18:41;99973.85;;;10.26;42.89
72330;BME280;60660;52.076;5.110;2023-04-01T12:21:14;99970.30;;;11.20;41.22
72330;BME280;60660;52.076;5.110;2023-04-01T12:23:41;99975.33;;;11.30;39.95
72330;BME280;60660;52.076;5.110;2023-04-01T12:26:09;99976.72;;;11.36;40.29
72330;BME280;60660;52.076;5.110;2023-04-01T12:28:25;99980.71;;;10.63;41.25
72330;BME280;60660;52.076;5.110;2023-04-01T12:30:51;99986.94;;;9.86;42.21
72330;BME280;60660;52.076;5.110;2023-04-01T12:33:24;99990.35;;;10.44;42.00
72330;BME280;60660;52.076;5.110;2023-04-01T12:35:46;99994.63;;;9.68;42.97
72330;BME280;60660;52.076;5.110;2023-04-01T12:38:13;99999.20;;;8.77;43.82
72330;BME280;60660;52.076;5.110;2023-04-01T12:40:40;99997.77;;;9.26;44.39
72330;BME280;60660;52.076;5.110;2023-04-01T12:43:03;100003.34;;;8.96;45.07
72330;BME280;60660;52.076;5.110;2023-04-01T12:45:35;100000.88;;;8.64;45.77
72330;BME280;60660;52.076;5.110;2023-04-01T12:48:36;100009.21;;;9.52;44.39
72330;BME280;60660;52.076;5.110;2023-04-01T12:50:24;100006.37;;;8.71;44.41
72330;BME280;60660;52.076;5.110;2023-04-01T12:52:44;100011.34;;;9.92;43.68
72330;BME280;60660;52.076;5.110;2023-04-01T12:55:39;100013.82;;;10.79;41.95
72330;BME280;60660;52.076;5.110;2023-04-01T12:57:49;100011.87;;;11.97;40.24
72330;BME280;60660;52.076;5.110;2023-04-01T13:00:08;100014.53;;;11.22;39.92
72330;BME280;60660;52.076;5.110;2023-04-01T13:02:27;100021.59;;;9.86;42.01